Time;durP1;ratioP1;P1;durP2;ratioP2;P2;SDS_P1;SDS_P2;PMS_P1;PMS_P2;Temp;Humidity;BMP_temperature;BMP_pressure;BME280_temperature;BME280_humidity;BME280_pressure;Samples;Min_cycle;Max_cycle;Signal;HPM_P1;HPM_P2
2023/08/08 00:02:12;;;;;;;0.10;0.10;;;17.60;99.90;;;;;;5062307;28;20055;-78
2023/08/08 00:04:38;;;;;;;0.10;0.10;;;18.50;99.90;;;;;;5062715;28;20024;-79
2023/08/08 00:07:04;;;;;;;0.10;0.10;;;18.70;99.90;;;;;;5062989;28;20024;-77
2023/08/08 00:09:30;;;;;;;0.10;0.10;;;18.80;99.90;;;;;;5081190;28;20452;-78
2023/08/08 00:11:57;;;;;;;0.13;0.13;;;18.80;99.90;;;;;;5062825;28;20795;-77
2023/08/08 00:14:26;;;;;;;0.40;0.40;;;18.90;99.90;;;;;;5079215;28;20587;-88
2023/08/08 00:16:53;;;;;;;0.10;0.10;;;18.80;99.90;;;;;;5081495;28;20037;-78
2023/08/08 00:19:19;;;;;;;0.10;0.10;;;19.20;99.90;;;;;;5064845;28;20048;-82
2023/08/08 00:21:46;;;;;;;0.10;0.10;;;19.10;99.90;;;;;;5081304;28;20303;-78
2023/08/08 00:24:12;;;;;;;1.98;1.60;;;18.80;99.90;;;;;;5062895;28;20020;-77
2023/08/08 00:26:38;;;;;;;0.10;0.10;;;18.70;99.90;;;;;;5080752;28;20020;-78
2023/08/08 00:29:04;;;;;;;0.10;0.10;;;18.70;99.90;;;;;;5080414;28;20548;-82
2023/08/08 00:31:41;;;;;;;0.10;0.10;;;18.60;99.90;;;;;;5080886;28;20044;-79
2023/08/08 00:34:07;;;;;;;0.10;0.10;;;15.30;99.90;;;;;;5060527;28;20047;-80
2023/08/08 00:36:33;;;;;;;0.20;0.20;;;18.30;99.90;;;;;;5080932;28;20036;-78
2023/08/08 00:38:59;;;;;;;0.10;0.10;;;18.10;99.90;;;;;;5062880;28;20238;-82
2023/08/08 00:41:26;;;;;;;0.10;0.10;;;17.80;99.90;;;;;;5080845;28;20044;-78
2023/08/08 00:43:52;;;;;;;0.10;0.10;;;16.40;99.90;;;;;;5080017;28;20012;-80
2023/08/08 00:46:23;;;;;;;0.10;0.10;;;16.60;99.90;;;;;;5062552;28;20024;-79
2023/08/08 00:49:06;;;;;;;0.10;0.10;;;17.00;99.90;;;;;;5060908;28;20020;-79
2023/08/08 00:51:32;;;;;;;0.10;0.10;;;17.30;99.90;;;;;;5059049;28;20430;-78
2023/08/08 00:53:59;;;;;;;0.10;0.10;;;16.10;99.90;;;;;;5061828;28;20032;-79
2023/08/08 00:56:25;;;;;;;0.10;0.10;;;15.90;99.90;;;;;;5079832;28;20024;-79
2023/08/08 00:58:52;;;;;;;0.10;0.10;;;16.00;99.90;;;;;;5079833;28;20184;-79
2023/08/08 01:01:19;;;;;;;0.15;0.15;;;16.10;99.90;;;;;;5080503;28;20269;-80
2023/08/08 01:03:45;;;;;;;0.10;0.10;;;15.90;99.90;;;;;;5078698;28;20020;-80
2023/08/08 01:06:19;;;;;;;0.60;0.60;;;16.00;99.90;;;;;;5044248;28;20032;-78
2023/08/08 01:09:16;;;;;;;0.10;0.10;;;16.50;99.90;;;;;;5081130;28;20050;-79
2023/08/08 01:11:48;;;;;;;0.20;0.20;;;16.90;99.90;;;;;;5081478;28;20090;-78
2023/08/08 01:14:15;;;;;;;0.10;0.10;;;17.10;99.90;;;;;;5079835;28;20023;-80
2023/08/08 01:16:42;;;;;;;0.10;0.10;;;17.40;99.90;;;;;;5061450;28;20032;-79
2023/08/08 01:19:11;;;;;;;0.10;0.10;;;17.60;99.90;;;;;;5062359;28;20035;-78
2023/08/08 01:21:41;;;;;;;0.20;0.20;;;17.60;99.90;;;;;;5044729;28;20107;-90
2023/08/08 01:24:17;;;;;;;0.10;0.10;;;17.90;99.90;;;;;;5081396;28;20016;-78
2023/08/08 01:26:44;;;;;;;0.10;0.10;;;19.00;99.90;;;;;;5081696;28;20020;-79
2023/08/08 01:29:10;;;;;;;0.10;0.10;;;18.20;99.90;;;;;;5081522;28;20516;-78
2023/08/08 01:31:37;;;;;;;4.68;4.13;;;18.40;99.90;;;;;;5082252;28;20309;-80
2023/08/08 01:34:03;;;;;;;0.10;0.10;;;17.30;99.90;;;;;;5082589;28;20020;-79
2023/08/08 01:36:38;;;;;;;0.10;0.10;;;18.60;99.90;;;;;;5081156;28;20425;-78
2023/08/08 01:39:10;;;;;;;0.10;0.10;;;18.60;99.90;;;;;;5082240;28;20008;-78
2023/08/08 01:41:39;;;;;;;0.10;0.10;;;18.60;99.90;;;;;;5063663;28;20507;-80
2023/08/08 01:44:06;;;;;;;0.10;0.10;;;18.50;99.90;;;;;;5082476;28;20059;-76
2023/08/08 01:46:33;;;;;;;0.25;0.25;;;18.30;99.90;;;;;;5081901;28;20047;-76
2023/08/08 01:48:59;;;;;;;0.10;0.10;;;18.10;99.90;;;;;;5082013;28;20501;-76
2023/08/08 01:51:28;;;;;;;0.10;0.10;;;18.40;99.90;;;;;;5082359;28;20020;-82
2023/08/08 01:53:54;;;;;;;0.10;0.10;;;18.50;99.90;;;;;;5083006;28;20016;-90
2023/08/08 01:56:21;;;;;;;0.10;0.10;;;18.40;99.90;;;;;;5064239;28;20016;-76
2023/08/08 01:58:47;;;;;;;0.10;0.10;;;;;;;;;;5080272;28;20441;-76
2023/08/08 02:01:13;;;;;;;0.10;0.10;;;18.30;99.90;;;;;;5060033;28;20750;-77
2023/08/08 02:03:38;;;;;;;0.10;0.10;;;18.10;99.90;;;;;;5060942;28;20115;-76
2023/08/08 02:06:04;;;;;;;0.45;0.45;;;18.10;99.90;;;;;;5062254;28;20020;-76
2023/08/08 02:08:30;;;;;;;0.25;0.25;;;17.90;99.90;;;;;;5059684;28;20027;-76
2023/08/08 02:10:56;;;;;;;0.17;0.17;;;17.90;99.90;;;;;;5060120;28;20395;-77
2023/08/08 02:13:22;;;;;;;0.10;0.10;;;17.60;99.90;;;;;;5063912;28;20059;-77
2023/08/08 02:15:48;;;;;;;0.10;0.10;;;18.10;99.90;;;;;;5059601;28;20043;-76
2023/08/08 02:18:15;;;;;;;0.10;0.10;;;17.40;99.90;;;;;;5073033;28;20025;-77
2023/08/08 02:20:41;;;;;;;0.10;0.10;;;16.50;99.90;;;;;;5060785;28;20205;-76
2023/08/08 02:23:07;;;;;;;0.10;0.10;;;17.80;99.90;;;;;;5066722;28;20267;-76
2023/08/08 02:25:33;;;;;;;0.10;0.10;;;17.90;99.90;;;;;;5066738;28;20039;-76
2023/08/08 02:27:59;;;;;;;0.10;0.10;;;18.10;99.90;;;;;;5064806;28;20576;-79
2023/08/08 02:30:25;;;;;;;0.10;0.10;;;15.50;99.90;;;;;;5067934;28;20107;-78
2023/08/08 02:32:51;;;;;;;0.10;0.10;;;18.40;99.90;;;;;;5065749;28;20580;-78
2023/08/08 02:35:17;;;;;;;0.10;0.10;;;18.50;99.90;;;;;;5065772;28;20020;-78
2023/08/08 02:37:43;;;;;;;0.10;0.10;;;19.10;99.90;;;;;;5067697;28;20044;-78
2023/08/08 02:40:09;;;;;;;0.10;0.10;;;19.20;99.90;;;;;;5066572;28;20410;-79
2023/08/08 02:42:35;;;;;;;0.10;0.10;;;18.40;99.90;;;;;;5065122;28;20102;-80
2023/08/08 02:45:02;;;;;;;0.10;0.10;;;19.20;99.90;;;;;;5065732;28;20399;-76
2023/08/08 02:47:28;;;;;;;0.10;0.10;;;19.00;99.90;;;;;;5064139;28;20476;-79
2023/08/08 02:49:54;;;;;;;0.10;0.10;;;15.70;99.90;;;;;;5065707;28;20209;-76
2023/08/08 02:52:25;;;;;;;0.10;0.10;;;18.50;99.90;;;;;;5065980;28;20035;-77
2023/08/08 02:54:52;;;;;;;0.10;0.10;;;18.50;99.90;;;;;;5066931;28;20016;-76
2023/08/08 02:57:28;;;;;;;0.10;0.10;;;18.70;99.90;;;;;;5069946;28;20078;-77
2023/08/08 02:59:54;;;;;;;0.10;0.10;;;18.60;99.90;;;;;;5069054;28;20024;-76
2023/08/08 03:02:20;;;;;;;0.10;0.10;;;18.60;99.90;;;;;;5086748;28;20039;-76
2023/08/08 03:04:47;;;;;;;0.22;0.22;;;18.70;99.90;;;;;;5086314;28;20216;-76
2023/08/08 03:07:14;;;;;;;0.35;0.35;;;18.50;99.90;;;;;;5087566;28;20024;-76
2023/08/08 03:09:40;;;;;;;0.10;0.10;;;18.50;99.90;;;;;;5071447;28;20780;-77
2023/08/08 03:12:07;;;;;;;0.10;0.10;;;18.50;99.90;;;;;;5089575;28;20039;-76
2023/08/08 03:14:33;;;;;;;0.10;0.10;;;17.10;99.90;;;;;;5067869;28;20089;-77
2023/08/08 03:17:00;;;;;;;0.40;0.40;;;18.60;99.90;;;;;;5088757;28;20417;-76
2023/08/08 03:19:26;;;;;;;0.10;0.10;;;19.10;99.90;;;;;;5089383;28;20333;-76
2023/08/08 03:21:53;;;;;;;0.10;0.10;;;18.50;99.90;;;;;;5088013;28;20024;-76
2023/08/08 03:24:23;;;;;;;0.70;0.70;;;19.20;99.90;;;;;;5087975;28;20028;-76
2023/08/08 03:26:49;;;;;;;0.10;0.10;;;17.80;99.90;;;;;;5087410;28;20661;-76
2023/08/08 03:29:15;;;;;;;0.10;0.10;;;19.00;99.90;;;;;;5087172;28;20490;-76
2023/08/08 03:31:41;;;;;;;0.10;0.10;;;18.80;99.90;;;;;;5088037;28;20024;-76
2023/08/08 03:34:07;;;;;;;0.10;0.10;;;19.30;99.90;;;;;;5088497;28;20020;-77
2023/08/08 03:36:33;;;;;;;0.10;0.10;;;18.60;99.90;;;;;;5089821;28;20129;-76
2023/08/08 03:38:59;;;;;;;0.20;0.20;;;18.70;99.90;;;;;;5086794;28;20020;-76
2023/08/08 03:41:27;;;;;;;0.10;0.10;;;18.40;99.90;;;;;;5068866;28;20032;-76
2023/08/08 03:43:56;;;;;;;0.10;0.10;;;19.00;99.90;;;;;;5087427;28;20027;-76
2023/08/08 03:46:22;;;;;;;0.90;0.90;;;18.40;99.90;;;;;;5088114;28;20618;-76
2023/08/08 03:48:48;;;;;;;0.10;0.10;;;18.40;99.90;;;;;;5086622;28;20027;-76
2023/08/08 03:51:16;;;;;;;0.10;0.10;;;17.90;99.90;;;;;;5086133;28;20103;-76
2023/08/08 03:53:45;;;;;;;0.73;0.73;;;18.10;99.90;;;;;;5086173;28;20321;-77
2023/08/08 03:56:11;;;;;;;0.10;0.10;;;18.10;99.90;;;;;;5087664;28;20031;-76
2023/08/08 03:58:38;;;;;;;0.10;0.10;;;17.90;99.90;;;;;;5069613;28;20025;-77
2023/08/08 04:01:04;;;;;;;0.10;0.10;;;18.00;99.90;;;;;;5086691;28;20044;-76
2023/08/08 04:03:30;;;;;;;0.30;0.30;;;18.00;99.90;;;;;;5086730;28;20518;-76
2023/08/08 04:05:57;;;;;;;0.10;0.10;;;17.90;99.90;;;;;;5085377;28;20016;-77
2023/08/08 04:08:22;;;;;;;0.10;0.10;;;18.10;99.90;;;;;;5086438;28;20024;-76
2023/08/08 04:10:49;;;;;;;1.95;1.50;;;18.40;99.90;;;;;;5085297;28;20070;-76
2023/08/08 04:13:15;;;;;;;0.10;0.10;;;18.90;99.90;;;;;;5087800;28;20031;-76
2023/08/08 04:15:41;;;;;;;0.10;0.10;;;18.50;99.90;;;;;;5087170;28;20078;-76
2023/08/08 04:18:07;;;;;;;0.10;0.10;;;18.60;99.90;;;;;;5087256;28;20681;-76
2023/08/08 04:20:34;;;;;;;0.10;0.10;;;18.30;99.90;;;;;;5085761;28;20028;-76
2023/08/08 04:23:00;;;;;;;0.10;0.10;;;18.60;99.90;;;;;;5068306;28;20542;-76
2023/08/08 04:25:28;;;;;;;0.10;0.10;;;19.30;99.90;;;;;;5067114;28;20020;-78
2023/08/08 04:27:55;;;;;;;0.30;0.30;;;18.70;99.90;;;;;;5086033;28;20110;-77
2023/08/08 04:30:23;;;;;;;0.03;0.03;;;18.90;99.90;;;;;;5085317;28;20095;-77
2023/08/08 04:32:49;;;;;;;0.10;0.10;;;17.60;99.90;;;;;;5084467;28;20016;-78
2023/08/08 04:35:15;;;;;;;0.10;0.10;;;18.50;99.90;;;;;;5083972;28;20702;-77
2023/08/08 04:37:41;;;;;;;0.10;0.10;;;18.60;99.90;;;;;;5084722;28;20242;-76
2023/08/08 04:40:08;;;;;;;0.10;0.10;;;18.60;99.90;;;;;;5085769;28;20024;-76
2023/08/08 04:42:34;;;;;;;0.10;0.10;;;18.60;99.90;;;;;;5066311;28;20084;-76
2023/08/08 04:45:00;;;;;;;0.10;0.10;;;18.60;99.90;;;;;;5064939;28;20654;-77
2023/08/08 04:47:27;;;;;;;0.22;0.22;;;18.80;99.90;;;;;;5085088;28;20032;-77
2023/08/08 04:49:53;;;;;;;0.10;0.10;;;18.60;99.90;;;;;;5085240;28;20557;-77
2023/08/08 04:52:19;;;;;;;0.60;0.60;;;19.20;99.90;;;;;;5085105;28;20307;-76
2023/08/08 04:54:48;;;;;;;0.10;0.10;;;18.70;99.90;;;;;;5067573;28;20032;-76
2023/08/08 04:57:17;;;;;;;0.50;0.50;;;19.10;99.90;;;;;;5064822;28;20184;-76
2023/08/08 04:59:43;;;;;;;0.13;0.13;;;18.30;99.90;;;;;;5067840;28;20713;-77
2023/08/08 05:02:10;;;;;;;0.10;0.10;;;18.40;99.90;;;;;;5085754;28;20047;-76
2023/08/08 05:04:36;;;;;;;0.10;0.10;;;18.80;99.90;;;;;;5086825;28;20115;-76
2023/08/08 05:07:02;;;;;;;0.10;0.10;;;19.10;99.90;;;;;;5087927;28;20112;-76
2023/08/08 05:09:28;;;;;;;0.38;0.38;;;18.90;99.90;;;;;;5085578;28;20127;-76
2023/08/08 05:11:56;;;;;;;0.10;0.10;;;;;;;;;;5084242;28;20027;-76
2023/08/08 05:14:22;;;;;;;0.38;0.38;;;18.60;99.90;;;;;;5086725;28;20138;-76
2023/08/08 05:16:48;;;;;;;0.10;0.10;;;18.70;99.90;;;;;;5067092;28;20099;-76
2023/08/08 05:19:14;;;;;;;0.10;0.10;;;18.70;99.90;;;;;;5069568;28;20027;-76
2023/08/08 05:21:40;;;;;;;0.10;0.10;;;20.80;99.90;;;;;;5084115;28;20020;-77
2023/08/08 05:24:07;;;;;;;0.10;0.10;;;18.90;99.90;;;;;;5082492;28;20187;-76
2023/08/08 05:26:33;;;;;;;0.10;0.10;;;19.10;99.90;;;;;;5065021;28;20028;-77
2023/08/08 05:28:59;;;;;;;0.10;0.10;;;19.20;99.90;;;;;;5086529;28;20013;-77
2023/08/08 05:31:25;;;;;;;0.15;0.15;;;19.50;99.90;;;;;;5084725;28;20018;-76
2023/08/08 05:33:51;;;;;;;0.20;0.20;;;18.10;99.90;;;;;;5083508;28;20043;-76
2023/08/08 05:36:18;;;;;;;0.10;0.10;;;19.20;99.90;;;;;;5066141;28;20196;-76
2023/08/08 05:38:43;;;;;;;0.30;0.30;;;19.20;99.90;;;;;;5084811;28;20566;-77
2023/08/08 05:41:09;;;;;;;0.10;0.10;;;19.40;99.90;;;;;;5084010;28;20111;-76
2023/08/08 05:43:42;;;;;;;0.10;0.10;;;19.40;99.90;;;;;;5084738;28;20024;-76
2023/08/08 05:46:08;;;;;;;0.10;0.10;;;17.40;99.90;;;;;;5085650;28;20117;-76
2023/08/08 05:48:36;;;;;;;0.10;0.10;;;19.90;99.90;;;;;;5083231;28;20305;-76
2023/08/08 05:51:04;;;;;;;0.10;0.10;;;19.50;99.90;;;;;;5083282;28;20085;-76
2023/08/08 05:53:32;;;;;;;0.10;0.10;;;19.20;99.90;;;;;;5061879;28;20324;-82
2023/08/08 05:55:58;;;;;;;0.10;0.10;;;19.00;99.90;;;;;;5081687;28;20069;-79
2023/08/08 05:58:24;;;;;;;0.32;0.32;;;18.70;99.90;;;;;;5061242;28;20062;-76
2023/08/08 06:00:53;;;;;;;0.10;0.10;;;18.60;99.90;;;;;;5061817;28;20044;-77
2023/08/08 06:03:19;;;;;;;0.17;0.17;;;19.80;99.90;;;;;;5079900;28;20370;-77
2023/08/08 06:05:45;;;;;;;0.10;0.10;;;19.00;99.90;;;;;;5080137;28;20139;-77
2023/08/08 06:08:13;;;;;;;0.10;0.10;;;17.80;99.90;;;;;;5080999;28;20020;-80
2023/08/08 06:10:39;;;;;;;0.10;0.10;;;17.50;99.90;;;;;;5083430;28;20008;-76
2023/08/08 06:13:05;;;;;;;0.10;0.10;;;15.80;99.90;;;;;;5078954;28;20031;-77
2023/08/08 06:15:33;;;;;;;0.10;0.10;;;16.90;99.90;;;;;;5079435;28;20024;-76
2023/08/08 06:18:00;;;;;;;0.22;0.22;;;16.90;99.90;;;;;;5062016;28;20217;-79
2023/08/08 06:20:26;;;;;;;0.10;0.10;;;16.50;99.90;;;;;;5060896;28;20038;-77
2023/08/08 06:22:52;;;;;;;0.10;0.10;;;15.00;99.90;;;;;;5080361;28;20024;-76
2023/08/08 06:25:18;;;;;;;0.10;0.10;;;16.40;99.90;;;;;;5061795;28;20428;-76
2023/08/08 06:27:44;;;;;;;0.10;0.10;;;16.40;99.90;;;;;;5062804;28;20601;-77
2023/08/08 06:30:11;;;;;;;0.10;0.10;;;16.50;99.90;;;;;;5080729;28;20131;-81
2023/08/08 06:32:37;;;;;;;0.10;0.10;;;16.70;99.90;;;;;;5079616;28;20406;-79
2023/08/08 06:35:03;;;;;;;2.33;2.22;;;16.30;99.90;;;;;;5061289;28;20036;-78
2023/08/08 06:37:29;;;;;;;0.10;0.10;;;15.90;99.90;;;;;;5061282;28;20521;-79
2023/08/08 06:39:56;;;;;;;0.10;0.10;;;15.70;99.90;;;;;;5060747;28;20261;-80
2023/08/08 06:42:22;;;;;;;0.15;0.15;;;15.90;99.90;;;;;;5059208;28;20040;-78
2023/08/08 06:44:51;;;;;;;0.20;0.20;;;15.90;99.90;;;;;;5060503;28;20035;-77
2023/08/08 06:47:22;;;;;;;0.10;0.10;;;15.60;99.90;;;;;;5060149;28;20020;-81
2023/08/08 06:49:51;;;;;;;0.10;0.10;;;15.40;99.90;;;;;;5078742;28;20028;-78
2023/08/08 06:52:16;;;;;;;0.10;0.10;;;15.90;99.90;;;;;;5078699;28;20008;-78
2023/08/08 06:54:49;;;;;;;0.10;0.10;;;15.00;99.90;;;;;;5078738;28;20027;-79
2023/08/08 06:57:16;;;;;;;;;;;17.70;99.90;;;;;;5078771;28;20662;-86
2023/08/08 06:59:42;;;;;;;0.65;0.65;;;14.80;99.90;;;;;;5061000;28;19904;-77
2023/08/08 07:02:09;;;;;;;0.10;0.10;;;18.30;99.90;;;;;;5060673;28;20032;-79
2023/08/08 07:04:35;;;;;;;0.10;0.10;;;15.00;99.90;;;;;;5060404;28;20049;-79
2023/08/08 07:07:01;;;;;;;0.57;0.57;;;15.00;99.90;;;;;;5078344;28;20071;-80
2023/08/08 07:09:27;;;;;;;1.30;1.30;;;14.70;99.90;;;;;;5081346;28;20019;-80
2023/08/08 07:11:53;;;;;;;0.15;0.15;;;14.70;99.90;;;;;;5081852;28;20035;-81
2023/08/08 07:14:19;;;;;;;0.10;0.10;;;14.50;99.90;;;;;;5081974;28;20016;-78
2023/08/08 07:16:48;;;;;;;0.52;0.52;;;14.90;99.90;;;;;;5064301;28;20028;-80
2023/08/08 07:19:14;;;;;;;0.10;0.10;;;14.90;99.90;;;;;;5082115;28;20044;-78
2023/08/08 07:21:40;;;;;;;0.10;0.10;;;15.00;99.90;;;;;;5082193;28;20272;-83
2023/08/08 07:24:15;;;;;;;0.10;0.10;;;15.10;99.90;;;;;;5081349;28;20032;-87
2023/08/08 07:26:41;;;;;;;0.47;0.47;;;17.00;99.90;;;;;;5082390;28;20016;-85
2023/08/08 07:29:07;;;;;;;0.10;0.10;;;15.10;99.90;;;;;;5082514;28;20081;-77
2023/08/08 07:31:36;;;;;;;0.13;0.13;;;15.50;99.90;;;;;;5081943;28;20453;-84
2023/08/08 07:34:02;;;;;;;0.10;0.10;;;15.50;99.90;;;;;;5081860;28;20145;-81
2023/08/08 07:36:28;;;;;;;0.10;0.10;;;14.70;99.90;;;;;;5063536;28;20028;-77
2023/08/08 07:38:59;;;;;;;0.10;0.10;;;14.90;99.90;;;;;;5064139;28;20016;-80
2023/08/08 07:41:26;;;;;;;0.10;0.10;;;15.00;99.90;;;;;;5064912;28;20040;-77
2023/08/08 07:43:55;;;;;;;0.32;0.32;;;14.90;99.90;;;;;;5063527;28;20020;-79
2023/08/08 07:46:21;;;;;;;5.03;3.85;;;15.00;99.90;;;;;;5097512;28;20020;-84
2023/08/08 07:48:47;;;;;;;0.10;0.10;;;15.20;99.90;;;;;;5082270;28;20021;-80
2023/08/08 07:51:13;;;;;;;0.10;0.10;;;15.30;99.90;;;;;;5081490;28;20172;-77
2023/08/08 07:53:39;;;;;;;0.10;0.10;;;15.60;99.90;;;;;;5080734;28;20077;-77
2023/08/08 07:56:05;;;;;;;0.10;0.10;;;15.80;99.90;;;;;;5081097;28;20705;-81
2023/08/08 07:58:32;;;;;;;0.10;0.10;;;15.70;99.90;;;;;;5063374;28;20027;-79
2023/08/08 08:00:59;;;;;;;0.10;0.10;;;16.00;99.90;;;;;;5080592;28;20083;-80
2023/08/08 08:03:27;;;;;;;0.10;0.10;;;13.30;99.90;;;;;;5062933;28;20024;-83
2023/08/08 08:05:53;;;;;;;0.10;0.10;;;16.30;99.90;;;;;;5084254;28;20020;-79
2023/08/08 08:08:21;;;;;;;0.10;0.10;;;;;;;;;;5081392;28;20154;-79
2023/08/08 08:10:48;;;;;;;1.40;1.30;;;16.80;99.90;;;;;;5063374;28;20024;-83
2023/08/08 08:13:14;;;;;;;0.10;0.10;;;17.40;99.90;;;;;;5080440;28;20222;-78
2023/08/08 08:15:40;;;;;;;0.20;0.20;;;17.20;99.90;;;;;;5062772;28;20055;-77
2023/08/08 08:18:11;;;;;;;0.10;0.10;;;16.90;99.90;;;;;;5080871;28;20096;-78
2023/08/08 08:20:40;;;;;;;0.20;0.20;;;14.10;99.90;;;;;;5062865;28;20125;-79
2023/08/08 08:23:06;;;;;;;0.10;0.10;;;15.70;99.90;;;;;;5080966;28;20031;-80
2023/08/08 08:25:32;;;;;;;0.10;0.10;;;17.00;99.90;;;;;;5080614;28;20020;-83
2023/08/08 08:27:58;;;;;;;0.10;0.10;;;17.10;99.90;;;;;;5080579;28;20020;-80
2023/08/08 08:30:27;;;;;;;9.43;1.35;;;17.40;99.90;;;;;;5080396;28;20039;-79
2023/08/08 08:32:53;;;;;;;0.10;0.10;;;17.80;99.90;;;;;;5080315;28;20104;-83
2023/08/08 08:35:19;;;;;;;0.85;0.85;;;17.40;99.90;;;;;;5080276;28;20107;-80
2023/08/08 08:37:47;;;;;;;0.10;0.10;;;18.90;99.90;;;;;;5080599;28;20589;-78
2023/08/08 08:40:19;;;;;;;0.10;0.10;;;18.80;99.90;;;;;;5062529;28;20021;-83
2023/08/08 08:42:48;;;;;;;6.97;6.65;;;19.10;99.90;;;;;;5061593;28;20039;-80
2023/08/08 08:45:16;;;;;;;0.10;0.10;;;18.80;99.90;;;;;;5080198;28;20016;-83
2023/08/08 08:47:44;;;;;;;0.17;0.17;;;22.00;99.90;;;;;;5062037;28;20059;-79
2023/08/08 08:50:10;;;;;;;0.10;0.10;;;19.30;99.90;;;;;;5061265;28;20024;-77
2023/08/08 08:52:37;;;;;;;0.65;0.25;;;19.40;99.90;;;;;;5079764;28;20024;-84
2023/08/08 08:55:04;;;;;;;0.10;0.10;;;18.90;99.90;;;;;;5080221;28;20602;-80
2023/08/08 08:57:34;;;;;;;0.10;0.10;;;19.80;99.90;;;;;;5080835;28;20023;-81
2023/08/08 09:00:03;;;;;;;0.10;0.10;;;19.00;99.90;;;;;;5062918;28;20070;-78
2023/08/08 09:02:33;;;;;;;0.20;0.20;;;20.80;99.90;;;;;;5080689;28;20216;-83
2023/08/08 09:05:02;;;;;;;0.10;0.10;;;19.50;99.90;;;;;;5080865;28;20023;-81
2023/08/08 09:07:31;;;;;;;0.13;0.13;;;19.80;99.90;;;;;;5062341;28;20031;-79
2023/08/08 09:09:57;;;;;;;0.10;0.10;;;18.80;99.90;;;;;;5062349;28;20152;-88
2023/08/08 09:12:24;;;;;;;0.10;0.10;;;18.60;99.90;;;;;;5082476;28;20580;-78
2023/08/08 09:14:56;;;;;;;0.10;0.10;;;18.60;99.90;;;;;;5079814;28;20040;-78
2023/08/08 09:17:26;;;;;;;0.10;0.10;;;18.50;99.90;;;;;;5059157;28;20039;-78
2023/08/08 09:20:01;;;;;;;0.10;0.10;;;19.00;99.90;;;;;;5061605;28;20032;-85
2023/08/08 09:22:28;;;;;;;0.25;0.25;;;18.30;99.90;;;;;;5079534;28;20032;-79
2023/08/08 09:24:58;;;;;;;0.63;0.63;;;18.50;99.90;;;;;;5095238;28;20055;-82
2023/08/08 09:27:24;;;;;;;0.10;0.10;;;18.40;99.90;;;;;;5079460;28;20702;-85
2023/08/08 09:29:50;;;;;;;0.10;0.10;;;18.40;99.90;;;;;;5078986;28;20038;-79
2023/08/08 09:32:17;;;;;;;0.10;0.10;;;18.50;99.90;;;;;;5060435;28;20509;-82
2023/08/08 09:34:51;;;;;;;0.10;0.10;;;18.60;99.90;;;;;;5079662;28;20650;-78
2023/08/08 09:37:20;;;;;;;0.57;0.55;;;17.90;99.90;;;;;;5079111;28;20020;-82
2023/08/08 09:39:45;;;;;;;0.10;0.10;;;18.70;99.90;;;;;;5061366;28;20108;-77
2023/08/08 09:42:14;;;;;;;0.10;0.10;;;18.90;99.90;;;;;;5060655;28;20119;-77
2023/08/08 09:44:46;;;;;;;0.10;0.10;;;18.90;99.90;;;;;;5061488;28;20020;-80
2023/08/08 09:47:13;;;;;;;0.25;0.25;;;15.20;99.90;;;;;;5079131;28;20687;-77
2023/08/08 09:49:39;;;;;;;0.10;0.10;;;19.30;99.90;;;;;;5060836;28;20119;-81
2023/08/08 09:52:18;;;;;;;0.10;0.10;;;19.50;99.90;;;;;;5078891;28;20730;-78
2023/08/08 09:54:45;;;;;;;0.10;0.10;;;;;;;;;;5060508;28;20615;-81
2023/08/08 09:57:17;;;;;;;0.10;0.10;;;19.80;99.90;;;;;;5079023;28;20512;-86
2023/08/08 09:59:49;;;;;;;0.30;0.30;;;20.30;99.90;;;;;;5044255;28;20033;-79
2023/08/08 10:02:22;;;;;;;0.10;0.10;;;18.40;99.90;;;;;;5078481;28;20032;-79
2023/08/08 10:04:48;;;;;;;1.08;0.75;;;20.80;99.90;;;;;;5078606;28;20012;-79
2023/08/08 10:07:15;;;;;;;0.10;0.10;;;20.60;99.90;;;;;;5081197;28;20031;-79
2023/08/08 10:09:44;;;;;;;0.10;0.10;;;20.70;99.90;;;;;;5078996;28;20024;-80
2023/08/08 10:12:12;;;;;;;1.48;1.38;;;20.30;99.90;;;;;;5079017;28;20528;-89
2023/08/08 10:14:44;;;;;;;0.20;0.20;;;20.10;99.90;;;;;;5078645;28;20023;-79
2023/08/08 10:17:14;;;;;;;0.10;0.10;;;21.10;99.90;;;;;;5061012;28;20024;-84
2023/08/08 10:19:40;;;;;;;0.10;0.10;;;21.10;99.90;;;;;;5079040;28;20024;-88
2023/08/08 10:22:09;;;;;;;0.10;0.10;;;21.20;99.90;;;;;;5078380;28;20036;-86
2023/08/08 10:24:36;;;;;;;0.10;0.10;;;21.10;99.90;;;;;;5061581;28;20103;-78
2023/08/08 10:27:04;;;;;;;0.10;0.10;;;21.70;99.90;;;;;;5061572;28;20047;-76
2023/08/08 10:29:32;;;;;;;0.40;0.40;;;21.90;99.90;;;;;;5079133;28;20016;-87
2023/08/08 10:32:03;;;;;;;0.05;0.05;;;22.10;99.90;;;;;;5078232;28;20085;-82
2023/08/08 10:34:41;;;;;;;0.90;0.90;;;22.20;99.60;;;;;;5077792;28;20039;-85
2023/08/08 10:37:12;;;;;;;0.00;0.00;;;22.50;99.20;;;;;;5060641;28;20241;-80
2023/08/08 10:40:00;;;;;;;0.10;0.10;;;23.00;99.90;;;;;;5078331;28;20086;-79
2023/08/08 10:42:28;;;;;;;0.10;0.10;;;23.30;99.90;;;;;;5077709;28;20089;-82
2023/08/08 10:45:01;;;;;;;0.70;0.50;;;22.40;99.40;;;;;;5081371;28;20479;-83
2023/08/08 10:47:37;;;;;;;0.65;0.65;;;22.70;97.80;;;;;;5080886;28;20017;-79
2023/08/08 10:50:15;;;;;;;0.20;0.20;;;22.90;96.60;;;;;;5081212;28;20020;-78
2023/08/08 10:52:52;;;;;;;0.10;0.10;;;22.90;97.20;;;;;;5082517;28;20081;-79
2023/08/08 10:55:23;;;;;;;0.20;0.20;;;23.20;95.60;;;;;;5080867;28;20516;-79
2023/08/08 10:58:22;;;;;;;0.10;0.10;;;23.10;95.90;;;;;;5083159;28;20020;-81
2023/08/08 11:00:53;;;;;;;0.10;0.10;;;23.60;93.80;;;;;;5062222;28;20054;-79
2023/08/08 11:03:21;;;;;;;0.10;0.10;;;23.60;91.90;;;;;;5061945;28;20417;-79
2023/08/08 11:05:48;;;;;;;0.10;0.10;;;23.60;92.00;;;;;;5064082;28;20092;-81
2023/08/08 11:08:17;;;;;;;0.20;0.15;;;23.70;92.20;;;;;;5063066;28;20020;-79
2023/08/08 11:10:51;;;;;;;0.10;0.10;;;25.00;92.90;;;;;;5081325;28;20023;-79
2023/08/08 11:13:17;;;;;;;0.10;0.10;;;23.90;91.90;;;;;;5063732;28;20020;-85
2023/08/08 11:15:43;;;;;;;1.63;1.58;;;24.60;92.50;;;;;;5081809;28;20016;-84
2023/08/08 11:18:13;;;;;;;0.00;0.00;;;24.10;91.20;;;;;;5081697;28;20028;-79
2023/08/08 11:20:39;;;;;;;0.10;0.10;;;22.00;88.40;;;;;;5081408;28;20398;-79
2023/08/08 11:23:18;;;;;;;0.10;0.10;;;24.00;90.70;;;;;;5081667;28;20073;-79
2023/08/08 11:25:48;;;;;;;0.10;0.10;;;24.30;92.90;;;;;;5080357;28;20126;-81
2023/08/08 11:28:15;;;;;;;0.90;0.57;;;24.20;92.20;;;;;;5062838;28;20028;-81
2023/08/08 11:30:43;;;;;;;0.10;0.10;;;24.60;92.60;;;;;;5062862;28;20072;-79
2023/08/08 11:33:09;;;;;;;0.10;0.10;;;24.30;92.00;;;;;;5081223;28;20086;-81
2023/08/08 11:35:35;;;;;;;0.20;0.20;;;24.50;91.70;;;;;;5063474;28;20220;-81
2023/08/08 11:38:02;;;;;;;0.20;0.20;;;24.10;91.50;;;;;;5062422;28;20396;-77
2023/08/08 11:40:29;;;;;;;0.10;0.10;;;27.30;91.50;;;;;;5062423;28;20039;-87
2023/08/08 11:42:57;;;;;;;0.10;0.10;;;23.50;89.50;;;;;;5081206;28;20351;-82
2023/08/08 11:45:24;;;;;;;0.10;0.10;;;23.80;90.10;;;;;;5080687;28;20027;-86
2023/08/08 11:47:53;;;;;;;0.10;0.10;;;23.70;90.30;;;;;;5081529;28;20288;-84
2023/08/08 11:50:22;;;;;;;0.10;0.10;;;23.90;89.80;;;;;;5081189;28;20016;-78
2023/08/08 11:52:50;;;;;;;0.00;0.00;;;24.50;90.50;;;;;;5062312;28;20054;-81
2023/08/08 11:55:16;;;;;;;0.00;0.00;;;25.00;89.80;;;;;;5062555;28;20107;-79
2023/08/08 11:57:42;;;;;;;0.20;0.20;;;25.40;87.10;;;;;;5063872;28;20028;-82
2023/08/08 12:00:14;;;;;;;0.10;0.10;;;25.80;87.80;;;;;;5080813;28;20121;-87
2023/08/08 12:02:42;;;;;;;2.33;0.63;;;26.30;85.50;;;;;;5062802;28;20316;-81
2023/08/08 12:05:12;;;;;;;1.38;1.27;;;25.70;81.90;;;;;;5062586;28;20031;-79
2023/08/08 12:07:41;;;;;;;0.05;0.05;;;25.60;82.30;;;;;;5079327;28;20023;-87
2023/08/08 12:10:16;;;;;;;0.20;0.20;;;25.40;81.60;;;;;;5062369;28;20085;-81
2023/08/08 12:12:42;;;;;;;0.00;0.00;;;25.50;81.60;;;;;;5062763;28;20494;-80
2023/08/08 12:15:08;;;;;;;0.00;0.00;;;24.00;82.70;;;;;;5061772;28;20114;-79
2023/08/08 12:17:36;;;;;;;0.00;0.00;;;26.10;82.00;;;;;;5062878;28;20447;-79
2023/08/08 12:20:07;;;;;;;0.52;0.52;;;26.00;82.90;;;;;;5081085;28;20024;-83
2023/08/08 12:22:33;;;;;;;0.05;0.05;;;27.50;78.40;;;;;;5080961;28;20352;-79
2023/08/08 12:25:00;;;;;;;0.00;0.00;;;27.90;77.10;;;;;;5063372;28;20685;-79
2023/08/08 12:27:26;;;;;;;0.10;0.10;;;27.70;77.40;;;;;;5082116;28;20763;-78
2023/08/08 12:29:52;;;;;;;0.10;0.10;;;27.60;77.40;;;;;;5080395;28;20309;-77
2023/08/08 12:32:23;;;;;;;0.10;0.10;;;27.90;75.90;;;;;;5079465;28;20501;-84
2023/08/08 12:34:49;;;;;;;0.20;0.20;;;28.50;76.30;;;;;;5061033;28;20043;-78
2023/08/08 12:37:15;;;;;;;0.00;0.00;;;29.00;74.80;;;;;;5061154;28;20024;-79
2023/08/08 12:39:41;;;;;;;0.50;0.50;;;29.20;72.60;;;;;;5080989;28;20285;-80
2023/08/08 12:42:07;;;;;;;0.28;0.20;;;28.80;73.10;;;;;;5081701;28;20059;-83
2023/08/08 12:44:33;;;;;;;0.10;0.10;;;28.50;74.20;;;;;;5082186;28;20024;-79
2023/08/08 12:46:59;;;;;;;0.10;0.10;;;28.50;73.60;;;;;;5080941;28;20050;-85
2023/08/08 12:49:25;;;;;;;0.00;0.00;;;29.00;73.20;;;;;;5061676;28;20024;-79
2023/08/08 12:51:55;;;;;;;0.00;0.00;;;28.60;71.80;;;;;;5080129;28;20051;-78